Terminal Aerodrome Forecast
Issued by NWS Cleveland, OH

Home | Current Version | Previous Version | Graphics & Text | Print | Product List | Glossary On
Versions: 1 2 3 4 5 6 7 8 9 10 11 12 13 14 15 16 17 18 19 20 21 22 23 24 25 26
278
FTUS41 KCLE 111740
TAFCLE
TAF
KCLE 111740Z 1118/1224 30012G20KT 5SM -SHSN OVC035
      TEMPO 1118/1121 3/4SM -SHSN OVC025
     FM112300 28010KT P6SM BKN050
     FM120200 23006KT P6SM SCT050 BKN250
     FM121000 21006KT P6SM BKN100
     FM121500 23015G22KT P6SM SCT035 OVC100
     FM122000 25018G28KT 2SM -SHSN OVC025=

USA.gov is the U.S. government's official web portal to all federal, state and local government web resources and services.